Tropical Cyclones
[Index]
Main Index Home Page Stock Weather Photos Extreme Storms Discussion Storm News and Storm Chasing Reports Tropical Cyclones / Hurricanes / Typhoons Weather Data and Links Wild Fires / Bushfires Weather Observation Techniques Weather Picture Catalogue Tornado Pictures and Reports Stock Video Footage and DVDs for sale
Season 1996-1997 Tropical Cyclone 199729 Track Map
Season 1996-1997 Summaries: [BoM-AU] [JTWC-AU] [JTWC-SIO] [JTWC-SPAC] [JTWC-SH]
<<- Previous TC | JTWC 1996-1997 Season | Next TC ->>

click for intensity scale information  Lat/long Grid: Show Hide

 Date Labels: Show Hide

Joint Typhoon Warning Centre Cyclone Data

Name: 199729

21 Feb 1997 18:00 UTC to 01 Mar 1997 12:00 UTC

    date/time    lat    long     hPa   cat  kts
1997-02-21 18   16.1   154.0W                 15          
1997-02-22 00   16.2   154.4W                 15          
1997-02-22 06   16.3   154.8W                 15          
1997-02-22 12   16.4   155.2W                 15          
1997-02-22 18   16.5   155.6W                 15          
1997-02-23 00   16.8   156.2W                 15          
1997-02-23 06   17.3   156.9W                 20          
1997-02-23 12   17.9   157.7W                 20          
1997-02-23 18   18.7   158.8W                 20          
1997-02-24 00   19.5   160.0W                 20          
1997-02-24 06   20.3   161.3W                 25          
1997-02-24 12   21.2   162.7W                 25          
1997-02-24 18   22.1   164.2W                 25          
1997-02-25 00   23.0   165.6W                 30          
1997-02-25 06   23.9   166.8W                 30          
1997-02-25 12   25.1   167.7W                 35          
1997-02-25 18   26.6   168.0W           1     45          
1997-02-26 00   28.3   167.9W           1     45          
1997-02-26 06   30.0   167.9W           1     45          
1997-02-26 12   31.5   168.8W           1     40          
1997-02-26 18   32.9   169.9W           1     40          
1997-02-27 00   34.4   170.6W                 35          
1997-02-27 06   35.9   171.0W                 35          
1997-02-27 12   37.4   171.1W                 35          
1997-02-27 18   38.9   171.0W           1     40          
1997-02-28 00   40.3   170.4W           1     40          
1997-02-28 06   41.7   169.6W           1     40          
1997-02-28 12   43.1   168.5W           1     45          
1997-02-28 18   44.5   167.1W           1     45          
1997-03-01 00   46.0   165.4W           1     50          
1997-03-01 06   47.7   163.2W           1     45          
1997-03-01 12   50.1   160.0W           1     45          
Winds are 1-min average.

Tropical cyclone tracks developed by Michael Bath using data from the Joint Typhoon Warning Centre Best Tracks and Google Maps.


[Australian Severe Weather index] [Copyright Notice] [Email Contacts] [Search This Site] [Privacy Policy]
Document: tropical_cyclone_199729.htm Updated: 18 September 2016